Kelsey, Minnesota
Current Conditions -  °F | °C
As of 7:32 AM on Sunday 23 Nov 2014 (Local Time) from KEVM Reporting Station
Moderate Fog Moderate Fog  
Wind Chill: 36°   Ceiling: 300
Heat Index: 36°   Visibility: 0.5mi
Dew Point: 36°   Wind: 3mph
Humidity: 100%   Direction: 160°SSE
Pressure: 29.41"   Gusts: NA
Location:  47.1793°N, 92.3523°W
Report Text: KEVM 231332Z AUTO 16003KT 1/2SM FG OVC003 02/02 A2941 RMK AO2
Loading
Personal Weather Stations






























Interactive Weather Map New forecast layout! Learn more

10-Day Weather Forecast

Advertisements
Track Severe Weather on mobile